sensor_id;sensor_type;location;lat;lon;timestamp;temperature;humidity
65408;DHT22;52017;51.230;-2.322;2022-12-18T00:02:33;-0.90;81.30
65408;DHT22;52017;51.230;-2.322;2022-12-18T00:06:19;-0.90;81.30
65408;DHT22;52017;51.230;-2.322;2022-12-18T00:10:02;-0.90;81.30
65408;DHT22;52017;51.230;-2.322;2022-12-18T00:13:46;-0.90;81.40
65408;DHT22;52017;51.230;-2.322;2022-12-18T00:17:28;-0.90;81.40
65408;DHT22;52017;51.230;-2.322;2022-12-18T00:21:11;-0.90;81.40
65408;DHT22;52017;51.230;-2.322;2022-12-18T00:24:54;-0.90;81.30
65408;DHT22;52017;51.230;-2.322;2022-12-18T00:28:36;-0.90;81.30
65408;DHT22;52017;51.230;-2.322;2022-12-18T00:32:19;-0.90;81.20
65408;DHT22;52017;51.230;-2.322;2022-12-18T00:36:05;-0.90;81.20
65408;DHT22;52017;51.230;-2.322;2022-12-18T00:39:48;-0.90;81.10
65408;DHT22;52017;51.230;-2.322;2022-12-18T00:43:30;-1.00;81.10
65408;DHT22;52017;51.230;-2.322;2022-12-18T00:47:16;-1.00;81.10
65408;DHT22;52017;51.230;-2.322;2022-12-18T00:50:59;-1.00;81.00
65408;DHT22;52017;51.230;-2.322;2022-12-18T00:54:44;-1.00;81.00
65408;DHT22;52017;51.230;-2.322;2022-12-18T00:58:27;-1.00;80.90
65408;DHT22;52017;51.230;-2.322;2022-12-18T01:02:09;-1.00;81.00
65408;DHT22;52017;51.230;-2.322;2022-12-18T01:05:51;-1.00;81.00
65408;DHT22;52017;51.230;-2.322;2022-12-18T01:09:33;-1.00;81.00
65408;DHT22;52017;51.230;-2.322;2022-12-18T01:13:16;-1.00;81.00
65408;DHT22;52017;51.230;-2.322;2022-12-18T01:16:58;-1.00;81.00
65408;DHT22;52017;51.230;-2.322;2022-12-18T01:20:40;-1.00;81.00
65408;DHT22;52017;51.230;-2.322;2022-12-18T01:24:23;-1.00;81.00
65408;DHT22;52017;51.230;-2.322;2022-12-18T01:28:05;-0.90;81.00
65408;DHT22;52017;51.230;-2.322;2022-12-18T01:31:46;-0.90;81.10
65408;DHT22;52017;51.230;-2.322;2022-12-18T01:35:29;-0.90;81.10
65408;DHT22;52017;51.230;-2.322;2022-12-18T01:39:13;-0.90;81.10
65408;DHT22;52017;51.230;-2.322;2022-12-18T01:42:55;-0.90;81.10
65408;DHT22;52017;51.230;-2.322;2022-12-18T01:46:37;-0.80;81.10
65408;DHT22;52017;51.230;-2.322;2022-12-18T01:50:41;-0.90;81.10
65408;DHT22;52017;51.230;-2.322;2022-12-18T01:54:23;-0.90;81.10
65408;DHT22;52017;51.230;-2.322;2022-12-18T01:58:05;-0.80;81.10
65408;DHT22;52017;51.230;-2.322;2022-12-18T02:01:47;-0.90;81.00
65408;DHT22;52017;51.230;-2.322;2022-12-18T02:09:30;-0.90;81.00
65408;DHT22;52017;51.230;-2.322;2022-12-18T02:17:26;-0.80;81.00
65408;DHT22;52017;51.230;-2.322;2022-12-18T02:29:44;-0.70;81.10
65408;DHT22;52017;51.230;-2.322;2022-12-18T02:33:34;-0.70;81.00
65408;DHT22;52017;51.230;-2.322;2022-12-18T02:37:18;-0.70;80.90
65408;DHT22;52017;51.230;-2.322;2022-12-18T02:41:02;-0.70;80.90
65408;DHT22;52017;51.230;-2.322;2022-12-18T02:44:47;-0.70;80.90
65408;DHT22;52017;51.230;-2.322;2022-12-18T02:48:32;-0.60;80.90
65408;DHT22;52017;51.230;-2.322;2022-12-18T02:52:24;-0.60;80.80
65408;DHT22;52017;51.230;-2.322;2022-12-18T02:56:16;-0.60;80.90
65408;DHT22;52017;51.230;-2.322;2022-12-18T03:00:08;-0.50;80.90
65408;DHT22;52017;51.230;-2.322;2022-12-18T03:03:56;-0.50;80.90
65408;DHT22;52017;51.230;-2.322;2022-12-18T03:07:49;-0.50;80.90
65408;DHT22;52017;51.230;-2.322;2022-12-18T03:11:34;-0.40;81.00
65408;DHT22;52017;51.230;-2.322;2022-12-18T03:15:48;-0.40;80.90
65408;DHT22;52017;51.230;-2.322;2022-12-18T03:19:32;-0.40;81.00
65408;DHT22;52017;51.230;-2.322;2022-12-18T03:23:22;-0.30;81.00
65408;DHT22;52017;51.230;-2.322;2022-12-18T03:27:10;-0.20;81.00
65408;DHT22;52017;51.230;-2.322;2022-12-18T03:30:56;-0.20;81.00
65408;DHT22;52017;51.230;-2.322;2022-12-18T03:34:42;-0.10;81.00
65408;DHT22;52017;51.230;-2.322;2022-12-18T03:38:24;-0.10;81.00
65408;DHT22;52017;51.230;-2.322;2022-12-18T03:42:29;0.00;81.10
65408;DHT22;52017;51.230;-2.322;2022-12-18T03:50:15;0.00;81.10
65408;DHT22;52017;51.230;-2.322;2022-12-18T03:54:01;0.00;81.10
65408;DHT22;52017;51.230;-2.322;2022-12-18T03:57:44;0.00;81.10
65408;DHT22;52017;51.230;-2.322;2022-12-18T04:01:33;0.10;81.20
65408;DHT22;52017;51.230;-2.322;2022-12-18T04:05:17;0.10;81.20
65408;DHT22;52017;51.230;-2.322;2022-12-18T04:09:00;0.10;81.20
65408;DHT22;52017;51.230;-2.322;2022-12-18T04:12:42;0.10;81.20
65408;DHT22;52017;51.230;-2.322;2022-12-18T04:16:25;0.20;81.20
65408;DHT22;52017;51.230;-2.322;2022-12-18T04:20:08;0.20;81.30
65408;DHT22;52017;51.230;-2.322;2022-12-18T04:23:50;0.20;81.30
65408;DHT22;52017;51.230;-2.322;2022-12-18T04:27:32;0.30;81.40
65408;DHT22;52017;51.230;-2.322;2022-12-18T04:31:14;0.30;81.40
65408;DHT22;52017;51.230;-2.322;2022-12-18T04:34:56;0.30;81.40
65408;DHT22;52017;51.230;-2.322;2022-12-18T04:38:38;0.40;81.50
65408;DHT22;52017;51.230;-2.322;2022-12-18T04:42:20;0.40;81.50
65408;DHT22;52017;51.230;-2.322;2022-12-18T04:46:04;0.40;81.60
65408;DHT22;52017;51.230;-2.322;2022-12-18T04:49:46;0.40;81.70
65408;DHT22;52017;51.230;-2.322;2022-12-18T04:53:28;0.50;81.90
65408;DHT22;52017;51.230;-2.322;2022-12-18T04:57:10;0.60;82.00
65408;DHT22;52017;51.230;-2.322;2022-12-18T05:00:52;0.70;82.20
65408;DHT22;52017;51.230;-2.322;2022-12-18T05:04:34;0.80;82.40
65408;DHT22;52017;51.230;-2.322;2022-12-18T05:08:16;0.90;82.60
65408;DHT22;52017;51.230;-2.322;2022-12-18T05:11:58;1.00;82.80
65408;DHT22;52017;51.230;-2.322;2022-12-18T05:15:40;1.00;82.90
65408;DHT22;52017;51.230;-2.322;2022-12-18T05:19:23;1.20;83.00
65408;DHT22;52017;51.230;-2.322;2022-12-18T05:23:05;1.30;83.10
65408;DHT22;52017;51.230;-2.322;2022-12-18T05:26:47;1.30;83.00
65408;DHT22;52017;51.230;-2.322;2022-12-18T05:30:29;1.40;83.10
65408;DHT22;52017;51.230;-2.322;2022-12-18T05:34:11;1.40;83.20
65408;DHT22;52017;51.230;-2.322;2022-12-18T05:37:53;1.40;83.20
65408;DHT22;52017;51.230;-2.322;2022-12-18T05:41:35;1.50;83.30
65408;DHT22;52017;51.230;-2.322;2022-12-18T05:45:17;1.50;83.30
65408;DHT22;52017;51.230;-2.322;2022-12-18T05:49:00;1.50;83.30
65408;DHT22;52017;51.230;-2.322;2022-12-18T05:52:42;1.50;83.30
65408;DHT22;52017;51.230;-2.322;2022-12-18T05:56:24;1.50;83.40
65408;DHT22;52017;51.230;-2.322;2022-12-18T06:00:07;1.60;83.50
65408;DHT22;52017;51.230;-2.322;2022-12-18T06:03:49;1.80;83.60
65408;DHT22;52017;51.230;-2.322;2022-12-18T06:07:32;1.90;83.60
65408;DHT22;52017;51.230;-2.322;2022-12-18T06:11:17;2.00;83.50
65408;DHT22;52017;51.230;-2.322;2022-12-18T06:15:00;2.10;83.40
65408;DHT22;52017;51.230;-2.322;2022-12-18T06:18:42;2.20;83.40
65408;DHT22;52017;51.230;-2.322;2022-12-18T06:22:24;2.30;83.30
65408;DHT22;52017;51.230;-2.322;2022-12-18T06:26:08;2.30;83.30
65408;DHT22;52017;51.230;-2.322;2022-12-18T06:29:50;2.50;83.40
65408;DHT22;52017;51.230;-2.322;2022-12-18T06:33:33;2.50;83.20
65408;DHT22;52017;51.230;-2.322;2022-12-18T06:37:16;2.60;83.10
65408;DHT22;52017;51.230;-2.322;2022-12-18T06:40:58;2.70;83.10
65408;DHT22;52017;51.230;-2.322;2022-12-18T06:44:40;2.80;83.00
65408;DHT22;52017;51.230;-2.322;2022-12-18T06:48:22;2.80;83.00
65408;DHT22;52017;51.230;-2.322;2022-12-18T06:52:04;2.90;82.90
65408;DHT22;52017;51.230;-2.322;2022-12-18T06:55:46;2.90;82.80
65408;DHT22;52017;51.230;-2.322;2022-12-18T06:59:29;3.00;82.70
65408;DHT22;52017;51.230;-2.322;2022-12-18T07:03:11;3.00;82.70
65408;DHT22;52017;51.230;-2.322;2022-12-18T07:06:53;3.00;82.70
65408;DHT22;52017;51.230;-2.322;2022-12-18T07:10:41;3.00;82.70
65408;DHT22;52017;51.230;-2.322;2022-12-18T07:14:29;3.00;82.70
65408;DHT22;52017;51.230;-2.322;2022-12-18T07:18:11;3.00;82.80
65408;DHT22;52017;51.230;-2.322;2022-12-18T07:21:54;2.90;82.80
65408;DHT22;52017;51.230;-2.322;2022-12-18T07:25:36;2.90;83.00
65408;DHT22;52017;51.230;-2.322;2022-12-18T07:29:18;2.90;83.00
65408;DHT22;52017;51.230;-2.322;2022-12-18T07:33:00;2.80;83.10
65408;DHT22;52017;51.230;-2.322;2022-12-18T07:36:43;2.80;83.20
65408;DHT22;52017;51.230;-2.322;2022-12-18T07:40:25;2.80;83.30
65408;DHT22;52017;51.230;-2.322;2022-12-18T07:44:10;2.90;83.40
65408;DHT22;52017;51.230;-2.322;2022-12-18T07:47:52;2.90;83.30
65408;DHT22;52017;51.230;-2.322;2022-12-18T07:51:35;2.90;83.40
65408;DHT22;52017;51.230;-2.322;2022-12-18T07:55:17;2.90;83.30
65408;DHT22;52017;51.230;-2.322;2022-12-18T07:58:59;2.90;83.20
65408;DHT22;52017;51.230;-2.322;2022-12-18T08:02:44;3.00;83.20
65408;DHT22;52017;51.230;-2.322;2022-12-18T08:06:26;3.00;83.10
65408;DHT22;52017;51.230;-2.322;2022-12-18T08:10:08;3.00;83.10
65408;DHT22;52017;51.230;-2.322;2022-12-18T08:13:51;3.10;83.00
65408;DHT22;52017;51.230;-2.322;2022-12-18T08:17:33;3.20;82.90
65408;DHT22;52017;51.230;-2.322;2022-12-18T08:21:21;3.30;82.70
65408;DHT22;52017;51.230;-2.322;2022-12-18T08:25:05;3.30;82.70
65408;DHT22;52017;51.230;-2.322;2022-12-18T08:28:48;3.20;82.60
65408;DHT22;52017;51.230;-2.322;2022-12-18T08:32:31;3.20;82.70
65408;DHT22;52017;51.230;-2.322;2022-12-18T08:36:14;3.10;82.70
65408;DHT22;52017;51.230;-2.322;2022-12-18T08:39:56;3.00;82.80
65408;DHT22;52017;51.230;-2.322;2022-12-18T08:43:40;2.90;83.10
65408;DHT22;52017;51.230;-2.322;2022-12-18T08:47:40;2.80;83.40
65408;DHT22;52017;51.230;-2.322;2022-12-18T08:51:22;2.80;83.70
65408;DHT22;52017;51.230;-2.322;2022-12-18T08:55:05;2.80;84.10
65408;DHT22;52017;51.230;-2.322;2022-12-18T08:58:47;2.80;84.30
65408;DHT22;52017;51.230;-2.322;2022-12-18T09:02:32;2.80;84.60
65408;DHT22;52017;51.230;-2.322;2022-12-18T09:06:16;2.80;84.80
65408;DHT22;52017;51.230;-2.322;2022-12-18T09:09:59;2.80;85.30
65408;DHT22;52017;51.230;-2.322;2022-12-18T09:13:41;2.90;85.40
65408;DHT22;52017;51.230;-2.322;2022-12-18T09:17:23;2.80;85.60
65408;DHT22;52017;51.230;-2.322;2022-12-18T09:21:17;2.90;85.50
65408;DHT22;52017;51.230;-2.322;2022-12-18T09:25:00;2.90;85.50
65408;DHT22;52017;51.230;-2.322;2022-12-18T09:28:43;2.90;85.50
65408;DHT22;52017;51.230;-2.322;2022-12-18T09:32:25;2.90;85.50
65408;DHT22;52017;51.230;-2.322;2022-12-18T09:36:09;3.00;85.50
65408;DHT22;52017;51.230;-2.322;2022-12-18T09:39:53;3.00;85.70
65408;DHT22;52017;51.230;-2.322;2022-12-18T09:43:48;3.00;85.80
65408;DHT22;52017;51.230;-2.322;2022-12-18T09:47:36;3.10;86.40
65408;DHT22;52017;51.230;-2.322;2022-12-18T09:51:25;3.10;85.90
65408;DHT22;52017;51.230;-2.322;2022-12-18T09:59:04;3.20;85.80
65408;DHT22;52017;51.230;-2.322;2022-12-18T10:02:47;3.20;85.90
65408;DHT22;52017;51.230;-2.322;2022-12-18T10:06:38;3.20;86.00
65408;DHT22;52017;51.230;-2.322;2022-12-18T10:18:27;3.30;86.10
65408;DHT22;52017;51.230;-2.322;2022-12-18T10:22:47;3.40;87.10
65408;DHT22;52017;51.230;-2.322;2022-12-18T10:26:31;3.40;87.40
65408;DHT22;52017;51.230;-2.322;2022-12-18T10:30:17;3.40;86.80
65408;DHT22;52017;51.230;-2.322;2022-12-18T10:34:01;3.50;86.90
65408;DHT22;52017;51.230;-2.322;2022-12-18T10:41:48;3.50;87.50
65408;DHT22;52017;51.230;-2.322;2022-12-18T10:45:30;3.50;87.50
65408;DHT22;52017;51.230;-2.322;2022-12-18T10:49:29;3.60;87.40
65408;DHT22;52017;51.230;-2.322;2022-12-18T10:53:19;3.60;87.50
65408;DHT22;52017;51.230;-2.322;2022-12-18T10:57:36;3.70;87.40
65408;DHT22;52017;51.230;-2.322;2022-12-18T11:01:21;3.70;87.90
65408;DHT22;52017;51.230;-2.322;2022-12-18T11:05:28;3.80;87.60
65408;DHT22;52017;51.230;-2.322;2022-12-18T11:09:24;3.80;88.40
65408;DHT22;52017;51.230;-2.322;2022-12-18T11:13:20;3.90;87.90
65408;DHT22;52017;51.230;-2.322;2022-12-18T11:17:21;4.00;88.10
65408;DHT22;52017;51.230;-2.322;2022-12-18T11:21:11;4.00;87.80
65408;DHT22;52017;51.230;-2.322;2022-12-18T11:25:04;4.10;87.80
65408;DHT22;52017;51.230;-2.322;2022-12-18T11:29:17;4.00;87.90
65408;DHT22;52017;51.230;-2.322;2022-12-18T11:36:52;4.20;87.70
65408;DHT22;52017;51.230;-2.322;2022-12-18T11:40:40;4.20;87.70
65408;DHT22;52017;51.230;-2.322;2022-12-18T11:44:28;4.30;87.80
65408;DHT22;52017;51.230;-2.322;2022-12-18T11:48:37;4.30;87.70
65408;DHT22;52017;51.230;-2.322;2022-12-18T11:56:32;4.40;87.70
65408;DHT22;52017;51.230;-2.322;2022-12-18T12:00:19;4.40;88.40
65408;DHT22;52017;51.230;-2.322;2022-12-18T12:09:00;4.40;88.40
65408;DHT22;52017;51.230;-2.322;2022-12-18T12:17:04;4.50;88.80
65408;DHT22;52017;51.230;-2.322;2022-12-18T12:21:11;4.50;88.50
65408;DHT22;52017;51.230;-2.322;2022-12-18T12:25:31;4.70;89.00
65408;DHT22;52017;51.230;-2.322;2022-12-18T12:33:29;4.80;89.30
65408;DHT22;52017;51.230;-2.322;2022-12-18T12:41:18;5.00;89.70
65408;DHT22;52017;51.230;-2.322;2022-12-18T12:45:32;5.00;89.20
65408;DHT22;52017;51.230;-2.322;2022-12-18T12:49:20;5.00;89.30
65408;DHT22;52017;51.230;-2.322;2022-12-18T12:53:14;5.10;89.60
65408;DHT22;52017;51.230;-2.322;2022-12-18T13:01:28;5.20;90.20
65408;DHT22;52017;51.230;-2.322;2022-12-18T13:05:29;5.30;90.20
65408;DHT22;52017;51.230;-2.322;2022-12-18T13:09:12;5.30;89.80
65408;DHT22;52017;51.230;-2.322;2022-12-18T13:13:05;5.40;89.90
65408;DHT22;52017;51.230;-2.322;2022-12-18T13:16:50;5.40;90.10
65408;DHT22;52017;51.230;-2.322;2022-12-18T13:20:38;5.40;90.00
65408;DHT22;52017;51.230;-2.322;2022-12-18T13:24:30;5.50;90.30
65408;DHT22;52017;51.230;-2.322;2022-12-18T13:28:15;5.60;90.50
65408;DHT22;52017;51.230;-2.322;2022-12-18T13:32:00;5.70;90.40
65408;DHT22;52017;51.230;-2.322;2022-12-18T13:39:32;5.90;90.70
65408;DHT22;52017;51.230;-2.322;2022-12-18T13:47:03;6.20;90.90
65408;DHT22;52017;51.230;-2.322;2022-12-18T13:50:53;6.40;91.00
65408;DHT22;52017;51.230;-2.322;2022-12-18T13:54:39;6.50;91.50
65408;DHT22;52017;51.230;-2.322;2022-12-18T13:58:22;6.70;91.40
65408;DHT22;52017;51.230;-2.322;2022-12-18T14:02:15;6.80;91.30
65408;DHT22;52017;51.230;-2.322;2022-12-18T14:06:07;6.90;91.60
65408;DHT22;52017;51.230;-2.322;2022-12-18T14:09:57;7.00;91.50
65408;DHT22;52017;51.230;-2.322;2022-12-18T14:13:59;7.00;91.50
65408;DHT22;52017;51.230;-2.322;2022-12-18T14:17:43;7.10;91.50
65408;DHT22;52017;51.230;-2.322;2022-12-18T14:21:28;7.20;91.60
65408;DHT22;52017;51.230;-2.322;2022-12-18T14:25:20;7.30;91.60
65408;DHT22;52017;51.230;-2.322;2022-12-18T14:29:26;7.40;91.80
65408;DHT22;52017;51.230;-2.322;2022-12-18T14:33:14;7.40;92.10
65408;DHT22;52017;51.230;-2.322;2022-12-18T14:36:57;7.50;91.90
65408;DHT22;52017;51.230;-2.322;2022-12-18T14:40:41;7.50;91.90
65408;DHT22;52017;51.230;-2.322;2022-12-18T14:44:23;7.60;91.90
65408;DHT22;52017;51.230;-2.322;2022-12-18T14:48:07;7.70;92.00
65408;DHT22;52017;51.230;-2.322;2022-12-18T14:52:02;7.80;92.10
65408;DHT22;52017;51.230;-2.322;2022-12-18T14:55:47;7.90;92.10
65408;DHT22;52017;51.230;-2.322;2022-12-18T14:59:30;7.90;92.20
65408;DHT22;52017;51.230;-2.322;2022-12-18T15:03:18;7.90;92.30
65408;DHT22;52017;51.230;-2.322;2022-12-18T15:10:52;7.90;92.30
65408;DHT22;52017;51.230;-2.322;2022-12-18T15:14:41;8.00;92.30
65408;DHT22;52017;51.230;-2.322;2022-12-18T15:18:32;8.00;92.40
65408;DHT22;52017;51.230;-2.322;2022-12-18T15:22:27;8.00;92.50
65408;DHT22;52017;51.230;-2.322;2022-12-18T15:26:14;8.10;92.50
65408;DHT22;52017;51.230;-2.322;2022-12-18T15:34:05;8.20;92.60
65408;DHT22;52017;51.230;-2.322;2022-12-18T15:37:50;8.20;92.70
65408;DHT22;52017;51.230;-2.322;2022-12-18T15:41:35;8.20;92.60
65408;DHT22;52017;51.230;-2.322;2022-12-18T15:45:17;8.20;92.70
65408;DHT22;52017;51.230;-2.322;2022-12-18T15:49:08;8.20;92.70
65408;DHT22;52017;51.230;-2.322;2022-12-18T15:52:59;8.20;92.70
65408;DHT22;52017;51.230;-2.322;2022-12-18T15:56:43;8.30;92.80
65408;DHT22;52017;51.230;-2.322;2022-12-18T16:00:44;8.40;92.80
65408;DHT22;52017;51.230;-2.322;2022-12-18T16:04:28;8.40;92.80
65408;DHT22;52017;51.230;-2.322;2022-12-18T16:08:13;8.40;92.80
65408;DHT22;52017;51.230;-2.322;2022-12-18T16:11:57;8.40;92.80
65408;DHT22;52017;51.230;-2.322;2022-12-18T16:15:42;8.40;92.80
65408;DHT22;52017;51.230;-2.322;2022-12-18T16:19:25;8.50;92.80
65408;DHT22;52017;51.230;-2.322;2022-12-18T16:23:08;8.50;92.80
65408;DHT22;52017;51.230;-2.322;2022-12-18T16:26:55;8.50;92.80
65408;DHT22;52017;51.230;-2.322;2022-12-18T16:30:42;8.50;92.90
65408;DHT22;52017;51.230;-2.322;2022-12-18T16:34:29;8.50;92.90
65408;DHT22;52017;51.230;-2.322;2022-12-18T16:38:24;8.60;92.90
65408;DHT22;52017;51.230;-2.322;2022-12-18T16:42:16;8.60;93.00
65408;DHT22;52017;51.230;-2.322;2022-12-18T16:46:01;8.60;93.00
65408;DHT22;52017;51.230;-2.322;2022-12-18T16:49:47;8.70;93.00
65408;DHT22;52017;51.230;-2.322;2022-12-18T16:53:48;8.70;93.00
65408;DHT22;52017;51.230;-2.322;2022-12-18T16:57:36;8.70;93.10
65408;DHT22;52017;51.230;-2.322;2022-12-18T17:01:19;8.70;93.00
65408;DHT22;52017;51.230;-2.322;2022-12-18T17:05:01;8.80;93.10
65408;DHT22;52017;51.230;-2.322;2022-12-18T17:08:43;8.80;93.00
65408;DHT22;52017;51.230;-2.322;2022-12-18T17:12:26;8.90;93.10
65408;DHT22;52017;51.230;-2.322;2022-12-18T17:16:09;8.80;93.00
65408;DHT22;52017;51.230;-2.322;2022-12-18T17:19:56;8.90;93.10
65408;DHT22;52017;51.230;-2.322;2022-12-18T17:23:38;8.90;93.10
65408;DHT22;52017;51.230;-2.322;2022-12-18T17:27:21;8.90;93.20
65408;DHT22;52017;51.230;-2.322;2022-12-18T17:31:21;8.90;93.10
65408;DHT22;52017;51.230;-2.322;2022-12-18T17:35:05;9.00;93.30
65408;DHT22;52017;51.230;-2.322;2022-12-18T17:39:02;9.00;93.10
65408;DHT22;52017;51.230;-2.322;2022-12-18T17:42:55;9.00;93.30
65408;DHT22;52017;51.230;-2.322;2022-12-18T17:46:40;9.00;93.20
65408;DHT22;52017;51.230;-2.322;2022-12-18T17:50:23;9.00;93.10
65408;DHT22;52017;51.230;-2.322;2022-12-18T17:54:13;9.00;93.20
65408;DHT22;52017;51.230;-2.322;2022-12-18T17:57:56;9.10;93.20
65408;DHT22;52017;51.230;-2.322;2022-12-18T18:01:43;9.10;93.20
65408;DHT22;52017;51.230;-2.322;2022-12-18T18:05:28;9.10;93.20
65408;DHT22;52017;51.230;-2.322;2022-12-18T18:09:13;9.20;93.30
65408;DHT22;52017;51.230;-2.322;2022-12-18T18:12:59;9.10;93.20
65408;DHT22;52017;51.230;-2.322;2022-12-18T18:17:00;9.20;93.20
65408;DHT22;52017;51.230;-2.322;2022-12-18T18:20:46;9.20;93.20
65408;DHT22;52017;51.230;-2.322;2022-12-18T18:24:28;9.30;93.30
65408;DHT22;52017;51.230;-2.322;2022-12-18T18:28:10;9.40;93.40
65408;DHT22;52017;51.230;-2.322;2022-12-18T18:31:52;9.40;93.40
65408;DHT22;52017;51.230;-2.322;2022-12-18T18:35:41;9.40;93.40
65408;DHT22;52017;51.230;-2.322;2022-12-18T18:39:39;9.40;93.40
65408;DHT22;52017;51.230;-2.322;2022-12-18T18:43:21;9.40;93.40
65408;DHT22;52017;51.230;-2.322;2022-12-18T18:47:06;9.50;93.40
65408;DHT22;52017;51.230;-2.322;2022-12-18T18:51:02;9.50;93.40
65408;DHT22;52017;51.230;-2.322;2022-12-18T18:54:46;9.50;93.50
65408;DHT22;52017;51.230;-2.322;2022-12-18T18:58:49;9.60;93.50
65408;DHT22;52017;51.230;-2.322;2022-12-18T19:02:32;9.60;93.60
65408;DHT22;52017;51.230;-2.322;2022-12-18T19:06:23;9.70;93.60
65408;DHT22;52017;51.230;-2.322;2022-12-18T19:10:06;9.80;93.60
65408;DHT22;52017;51.230;-2.322;2022-12-18T19:13:49;9.90;93.70
65408;DHT22;52017;51.230;-2.322;2022-12-18T19:17:32;10.00;93.60
65408;DHT22;52017;51.230;-2.322;2022-12-18T19:21:15;10.00;93.60
65408;DHT22;52017;51.230;-2.322;2022-12-18T19:24:59;10.00;93.50
65408;DHT22;52017;51.230;-2.322;2022-12-18T19:28:42;10.00;93.50
65408;DHT22;52017;51.230;-2.322;2022-12-18T19:32:25;10.10;93.50
65408;DHT22;52017;51.230;-2.322;2022-12-18T19:40:02;10.20;93.60
65408;DHT22;52017;51.230;-2.322;2022-12-18T19:43:53;10.20;93.60
65408;DHT22;52017;51.230;-2.322;2022-12-18T19:47:37;10.30;93.60
65408;DHT22;52017;51.230;-2.322;2022-12-18T19:51:22;10.30;93.60
65408;DHT22;52017;51.230;-2.322;2022-12-18T19:55:05;10.40;93.60
65408;DHT22;52017;51.230;-2.322;2022-12-18T19:58:49;10.40;93.60
65408;DHT22;52017;51.230;-2.322;2022-12-18T20:02:32;10.40;93.60
65408;DHT22;52017;51.230;-2.322;2022-12-18T20:06:32;10.40;93.60
65408;DHT22;52017;51.230;-2.322;2022-12-18T20:10:15;10.50;93.90
65408;DHT22;52017;51.230;-2.322;2022-12-18T20:14:00;10.40;93.60
65408;DHT22;52017;51.230;-2.322;2022-12-18T20:17:42;10.40;93.50
65408;DHT22;52017;51.230;-2.322;2022-12-18T20:21:27;10.50;93.60
65408;DHT22;52017;51.230;-2.322;2022-12-18T20:25:10;10.50;93.60
65408;DHT22;52017;51.230;-2.322;2022-12-18T20:28:53;10.60;93.60
65408;DHT22;52017;51.230;-2.322;2022-12-18T20:32:38;10.60;93.60
65408;DHT22;52017;51.230;-2.322;2022-12-18T20:36:21;10.70;93.50
65408;DHT22;52017;51.230;-2.322;2022-12-18T20:40:05;10.70;93.50
65408;DHT22;52017;51.230;-2.322;2022-12-18T20:43:49;10.60;93.40
65408;DHT22;52017;51.230;-2.322;2022-12-18T20:47:31;10.70;93.50
65408;DHT22;52017;51.230;-2.322;2022-12-18T20:51:17;10.70;93.50
65408;DHT22;52017;51.230;-2.322;2022-12-18T20:55:05;10.70;93.60
65408;DHT22;52017;51.230;-2.322;2022-12-18T20:58:50;10.70;93.60
65408;DHT22;52017;51.230;-2.322;2022-12-18T21:02:36;10.80;93.70
65408;DHT22;52017;51.230;-2.322;2022-12-18T21:06:20;10.80;93.60
65408;DHT22;52017;51.230;-2.322;2022-12-18T21:10:04;10.90;93.70
65408;DHT22;52017;51.230;-2.322;2022-12-18T21:13:47;10.90;93.90
65408;DHT22;52017;51.230;-2.322;2022-12-18T21:17:29;11.00;93.90
65408;DHT22;52017;51.230;-2.322;2022-12-18T21:21:15;11.00;93.90
65408;DHT22;52017;51.230;-2.322;2022-12-18T21:25:08;11.10;93.90
65408;DHT22;52017;51.230;-2.322;2022-12-18T21:28:55;11.10;93.90
65408;DHT22;52017;51.230;-2.322;2022-12-18T21:32:38;11.20;93.90
65408;DHT22;52017;51.230;-2.322;2022-12-18T21:36:23;11.20;93.90
65408;DHT22;52017;51.230;-2.322;2022-12-18T21:40:06;11.30;93.90
65408;DHT22;52017;51.230;-2.322;2022-12-18T21:43:50;11.40;94.00
65408;DHT22;52017;51.230;-2.322;2022-12-18T21:47:47;11.50;93.90
65408;DHT22;52017;51.230;-2.322;2022-12-18T21:51:30;11.50;94.00
65408;DHT22;52017;51.230;-2.322;2022-12-18T21:55:15;11.50;93.80
65408;DHT22;52017;51.230;-2.322;2022-12-18T21:58:57;11.50;93.90
65408;DHT22;52017;51.230;-2.322;2022-12-18T22:02:39;11.50;93.90
65408;DHT22;52017;51.230;-2.322;2022-12-18T22:06:23;11.60;93.90
65408;DHT22;52017;51.230;-2.322;2022-12-18T22:10:06;11.60;94.00
65408;DHT22;52017;51.230;-2.322;2022-12-18T22:13:48;11.70;93.90
65408;DHT22;52017;51.230;-2.322;2022-12-18T22:17:32;11.70;93.90
65408;DHT22;52017;51.230;-2.322;2022-12-18T22:21:29;11.70;93.90
65408;DHT22;52017;51.230;-2.322;2022-12-18T22:25:15;11.70;94.10
65408;DHT22;52017;51.230;-2.322;2022-12-18T22:28:57;11.70;94.00
65408;DHT22;52017;51.230;-2.322;2022-12-18T22:32:58;11.70;94.00
65408;DHT22;52017;51.230;-2.322;2022-12-18T22:36:42;11.70;93.90
65408;DHT22;52017;51.230;-2.322;2022-12-18T22:40:26;11.70;93.90
65408;DHT22;52017;51.230;-2.322;2022-12-18T22:44:09;11.80;93.90
65408;DHT22;52017;51.230;-2.322;2022-12-18T22:47:53;11.70;93.80
65408;DHT22;52017;51.230;-2.322;2022-12-18T22:51:35;11.80;93.90
65408;DHT22;52017;51.230;-2.322;2022-12-18T22:55:18;11.70;93.90
65408;DHT22;52017;51.230;-2.322;2022-12-18T22:59:00;11.70;93.90
65408;DHT22;52017;51.230;-2.322;2022-12-18T23:02:44;11.70;93.90
65408;DHT22;52017;51.230;-2.322;2022-12-18T23:06:27;11.70;93.90
65408;DHT22;52017;51.230;-2.322;2022-12-18T23:10:09;11.70;94.00
65408;DHT22;52017;51.230;-2.322;2022-12-18T23:13:52;11.70;94.10
65408;DHT22;52017;51.230;-2.322;2022-12-18T23:17:38;11.70;94.10
65408;DHT22;52017;51.230;-2.322;2022-12-18T23:21:21;11.70;94.00
65408;DHT22;52017;51.230;-2.322;2022-12-18T23:25:05;11.80;94.10
65408;DHT22;52017;51.230;-2.322;2022-12-18T23:28:52;11.80;94.20
65408;DHT22;52017;51.230;-2.322;2022-12-18T23:32:37;11.80;94.10
65408;DHT22;52017;51.230;-2.322;2022-12-18T23:36:22;11.80;94.10
65408;DHT22;52017;51.230;-2.322;2022-12-18T23:40:06;11.80;94.10
65408;DHT22;52017;51.230;-2.322;2022-12-18T23:43:49;11.90;94.10
65408;DHT22;52017;51.230;-2.322;2022-12-18T23:47:32;11.80;94.10
65408;DHT22;52017;51.230;-2.322;2022-12-18T23:51:15;11.90;94.20
65408;DHT22;52017;51.230;-2.322;2022-12-18T23:54:58;12.00;94.30
65408;DHT22;52017;51.230;-2.322;2022-12-18T23:58:43;12.00;94.30
